Meteo Giornale » Osservazioni meteo Italia » Lamezia Terme

ore: 08:50 - Osservazioni Meteo Lamezia Terme
Lat. 38° 54' N Lon. 16° 15' E Alt. 15 metri s.l.m.

sereno Europe/Rome

18 °C

Sereno

Temp. 24 Ore

10 °C

19 °C

Est

35.2 Km/h

Dew point 6 °C

Umidità 45 %

Visibilità  10 Km

Il sole sorge alle ore 05:53

Il sole tramonta alle ore 18:10

Data e Ora Cielo e Fenomeni T °C DP °C Um. % Pres. hPa Vis. km Vento km/h
Oggi h: 08:50 sereno Sereno 18 6 45 1023 10 E 35.2
Oggi h: 07:50 sereno Sereno 16 7 55 1023 10 E/NE 20.3
Oggi h: 06:50 sereno Sereno 13 6 62 1023 10 N/NE 16.7
Oggi h: 05:50 sereno Sereno 10 5 71 1023 10 E 16.7
Oggi h: 04:50 poco_nuvoloso Poco Nuvoloso 12 6 66 1023 10 E/NE 7.4
Oggi h: 03:50 poco_nuvoloso Poco Nuvoloso 14 5 54 1023 10 E/SE 13
Oggi h: 02:50 nuvoloso Nuvoloso 15 5 51 1023 10 E/SE 9.3
Oggi h: 01:50 nuvoloso Nuvoloso 15 6 54 1022 10 E 18.5
Oggi h: 00:50 nuvoloso Nuvoloso 16 6 51 1022 10 SE 11.1
Ieri h: 23:50 nuvoloso Nuvoloso 16 6 51 1022 10 SE 13
Ieri h: 22:50 nuvoloso Nuvoloso 15 7 58 1022 10 SE 7.4
Ieri h: 21:50 nuvoloso Nuvoloso 14 8 67 1022 10 E 11.1
Ieri h: 20:50 nuvoloso Nuvoloso 15 8 62 1022 10 E 16.7
Ieri h: 19:50 nuvoloso Nuvoloso 15 8 62 1022 10 E 13
Ieri h: 18:50 nuvoloso Nuvoloso 16 8 58 1021 10 E 24
Ieri h: 17:50 nuvoloso Nuvoloso 17 6 48 1021 10 E/SE 20.3
Ieri h: 16:50 nuvoloso Nuvoloso 17 6 48 1021 10 E 25.9
Ieri h: 15:50 poco_nuvoloso Poco Nuvoloso 18 6 45 1020 10 E 33.3
Ieri h: 14:50 poco_nuvoloso Poco Nuvoloso 18 7 48 1020 10 E 37
Ieri h: 13:50 poco_nuvoloso Poco Nuvoloso 19 7 45 1021 10 E 31.5
Ieri h: 12:50 poco_nuvoloso Poco Nuvoloso 19 8 48 1022 10 E 18.5
Ieri h: 11:50 poco_nuvoloso Poco Nuvoloso 18 8 51 1022 10 E 24
Ieri h: 10:50 poco_nuvoloso Poco Nuvoloso 18 8 51 1022 10 E/SE 18.5
Ieri h: 09:50 poco_nuvoloso Poco Nuvoloso 17 9 59 1022 10 E 13